Time;durP1;ratioP1;P1;durP2;ratioP2;P2;SDS_P1;SDS_P2;PMS_P1;PMS_P2;Temp;Humidity;BMP_temperature;BMP_pressure;BME280_temperature;BME280_humidity;BME280_pressure;Samples;Min_cycle;Max_cycle;Signal;HPM_P1;HPM_P2
2022/09/21 00:00:36;;;;;;;3.88;2.00;;;7.50;99.90;;;;;;5009102;28;20436;-75
2022/09/21 00:03:02;;;;;;;3.20;2.00;;;7.60;99.90;;;;;;5028927;28;20052;-76
2022/09/21 00:05:28;;;;;;;3.88;2.22;;;7.50;99.90;;;;;;5028091;28;20037;-76
2022/09/21 00:07:54;;;;;;;3.67;2.10;;;7.50;99.90;;;;;;5011559;28;20170;-76
2022/09/21 00:10:20;;;;;;;2.17;1.75;;;7.50;99.90;;;;;;5026507;28;20036;-75
2022/09/21 00:12:47;;;;;;;2.85;1.92;;;7.40;99.90;;;;;;5011386;28;20060;-76
2022/09/21 00:15:18;;;;;;;2.47;2.22;;;7.40;99.90;;;;;;5024038;28;20045;-76
2022/09/21 00:17:46;;;;;;;2.22;2.00;;;7.40;99.90;;;;;;5011032;28;20442;-75
2022/09/21 00:20:13;;;;;;;3.22;2.47;;;7.40;99.90;;;;;;5005544;28;20075;-76
2022/09/21 00:22:39;;;;;;;3.08;2.25;;;7.40;99.90;;;;;;5027282;28;20510;-75
2022/09/21 00:25:05;;;;;;;3.58;2.20;;;7.40;99.90;;;;;;5030063;28;20033;-76
2022/09/21 00:27:31;;;;;;;4.78;2.20;;;7.40;99.90;;;;;;5010360;28;20056;-77
2022/09/21 00:30:00;;;;;;;4.43;2.60;;;7.40;99.90;;;;;;5020046;28;20033;-75
2022/09/21 00:32:26;;;;;;;4.97;3.10;;;7.30;99.90;;;;;;5034407;28;20397;-77
2022/09/21 00:34:52;;;;;;;5.03;3.15;;;7.30;99.90;;;;;;5015824;28;20186;-77
2022/09/21 00:37:19;;;;;;;4.47;3.40;;;7.30;99.90;;;;;;5025659;28;20037;-74
2022/09/21 00:39:45;;;;;;;4.95;3.42;;;7.40;99.90;;;;;;5028574;28;20064;-75
2022/09/21 00:42:21;;;;;;;7.28;3.55;;;7.40;99.90;;;;;;5024622;28;20130;-74
2022/09/21 00:44:47;;;;;;;10.93;4.20;;;7.40;99.90;;;;;;5008715;28;20037;-75
2022/09/21 00:47:21;;;;;;;9.20;4.70;;;7.40;99.90;;;;;;5011692;28;20052;-76
2022/09/21 00:49:53;;;;;;;8.48;4.35;;;7.40;99.90;;;;;;5027683;28;20456;-74
2022/09/21 00:52:21;;;;;;;8.23;4.47;;;7.50;99.90;;;;;;4995088;28;20516;-75
2022/09/21 00:55:04;;;;;;;7.50;4.30;;;7.40;99.90;;;;;;5025731;28;20342;-77
2022/09/21 00:57:31;;;;;;;11.32;4.63;;;7.40;99.90;;;;;;5009657;28;20119;-75
2022/09/21 01:00:00;;;;;;;9.05;4.80;;;7.40;99.90;;;;;;5023495;28;20151;-76
2022/09/21 01:02:27;;;;;;;6.50;4.10;;;7.50;99.90;;;;;;5010124;28;20140;-76
2022/09/21 01:04:54;;;;;;;8.50;4.63;;;7.50;99.90;;;;;;5006631;28;20098;-76
2022/09/21 01:07:24;;;;;;;10.40;4.18;;;7.40;99.90;;;;;;5027971;28;20037;-75
2022/09/21 01:09:54;;;;;;;6.00;4.13;;;7.40;99.90;;;;;;5024082;28;20217;-76
2022/09/21 01:12:38;;;;;;;8.32;4.22;;;7.40;99.90;;;;;;5030503;28;20058;-76
2022/09/21 01:15:25;;;;;;;9.57;4.25;;;7.40;99.90;;;;;;5009572;28;20138;-76
2022/09/21 01:18:01;;;;;;;7.95;3.60;;;7.30;99.90;;;;;;5027261;28;20033;-74
2022/09/21 01:20:40;;;;;;;6.18;3.85;;;7.30;99.90;;;;;;5028239;28;20158;-75
2022/09/21 01:23:28;;;;;;;4.95;3.63;;;7.30;99.90;;;;;;5015778;28;20049;-75
2022/09/21 01:26:03;;;;;;;7.53;3.88;;;7.30;99.90;;;;;;5027515;28;20141;-75
2022/09/21 01:28:29;;;;;;;;;;;7.30;99.90;;;;;;5034144;28;20144;-77
2022/09/21 01:30:58;;;;;;;10.68;3.75;;;7.20;99.90;;;;;;5028629;28;20027;-75
2022/09/21 01:33:31;;;;;;;11.30;3.80;;;7.10;99.90;;;;;;5009338;28;20167;-75
2022/09/21 01:36:03;;;;;;;9.18;3.70;;;7.10;99.90;;;;;;5031690;28;20116;-76
2022/09/21 01:38:37;;;;;;;10.18;3.90;;;7.10;99.90;;;;;;5012366;28;20033;-75
2022/09/21 01:41:06;;;;;;;6.47;3.35;;;7.00;99.90;;;;;;5006586;28;20064;-75
2022/09/21 01:43:44;;;;;;;11.13;3.72;;;6.90;99.90;;;;;;5028359;28;20103;-77
2022/09/21 01:46:15;;;;;;;7.55;3.22;;;6.90;99.90;;;;;;5028483;28;20055;-75
2022/09/21 01:48:46;;;;;;;9.40;3.55;;;6.90;99.90;;;;;;5015048;28;20033;-75
2022/09/21 01:51:14;;;;;;;5.70;3.40;;;6.80;99.90;;;;;;5025399;28;20037;-74
2022/09/21 01:53:55;;;;;;;8.73;3.67;;;6.80;99.90;;;;;;5031762;28;20123;-75
2022/09/21 01:56:22;;;;;;;5.45;3.30;;;6.70;99.90;;;;;;5028328;28;20041;-75
2022/09/21 01:58:51;;;;;;;6.15;3.25;;;6.70;99.90;;;;;;5013994;28;21257;-75
2022/09/21 02:01:20;;;;;;;10.27;2.85;;;6.70;99.90;;;;;;5011088;28;20044;-75
2022/09/21 02:03:53;;;;;;;4.38;2.60;;;6.70;99.90;;;;;;5016889;28;20068;-76
2022/09/21 02:06:19;;;;;;;5.30;2.63;;;6.60;99.90;;;;;;5031981;28;20038;-76
2022/09/21 02:08:45;;;;;;;4.50;2.60;;;6.60;99.90;;;;;;5031507;28;20044;-77
2022/09/21 02:11:12;;;;;;;3.45;2.47;;;6.60;99.90;;;;;;5029064;28;20033;-75
2022/09/21 02:13:43;;;;;;;5.45;2.80;;;6.60;99.90;;;;;;5030295;28;20404;-75
2022/09/21 02:16:23;;;;;;;5.38;2.70;;;6.50;99.90;;;;;;5026349;28;20350;-77
2022/09/21 02:19:09;;;;;;;4.13;2.70;;;6.50;99.90;;;;;;5011918;28;20182;-77
2022/09/21 02:21:54;;;;;;;5.15;2.33;;;6.40;99.90;;;;;;5021523;28;20068;-76
2022/09/21 02:24:43;;;;;;;4.50;2.25;;;6.40;99.90;;;;;;5011715;28;20180;-76
2022/09/21 02:27:18;;;;;;;3.22;2.45;;;6.40;99.90;;;;;;5030561;28;20102;-76
2022/09/21 02:29:50;;;;;;;4.03;2.28;;;6.40;99.90;;;;;;5049135;28;20036;-77
2022/09/21 02:32:26;;;;;;;4.20;1.95;;;6.40;99.90;;;;;;5007702;28;20042;-75
2022/09/21 02:35:11;;;;;;;2.70;2.05;;;6.30;99.90;;;;;;5029868;28;20072;-77
2022/09/21 02:37:55;;;;;;;2.80;2.30;;;6.30;99.90;;;;;;5013561;28;20033;-77
2022/09/21 02:40:30;;;;;;;3.80;2.05;;;6.30;99.90;;;;;;5011093;28;20136;-76
2022/09/21 02:43:01;;;;;;;2.35;1.98;;;6.20;99.90;;;;;;5013393;28;20033;-76
2022/09/21 02:45:35;;;;;;;3.63;2.10;;;6.20;99.90;;;;;;5029068;28;20526;-77
2022/09/21 02:48:11;;;;;;;4.10;1.98;;;6.30;99.90;;;;;;5027173;28;20040;-75
2022/09/21 02:50:56;;;;;;;3.75;2.20;;;6.20;99.90;;;;;;5007530;28;20037;-76
2022/09/21 02:53:27;;;;;;;2.53;2.20;;;6.20;99.90;;;;;;5026306;28;20044;-77
2022/09/21 02:55:55;;;;;;;2.88;2.08;;;6.20;99.90;;;;;;5010099;28;20461;-75
2022/09/21 02:58:23;;;;;;;2.42;1.80;;;6.20;99.90;;;;;;5025263;28;20053;-75
2022/09/21 03:00:49;;;;;;;2.78;2.00;;;6.10;99.90;;;;;;5041659;28;20112;-75
2022/09/21 03:03:21;;;;;;;2.58;2.08;;;6.10;99.90;;;;;;5009299;28;20048;-77
2022/09/21 03:05:48;;;;;;;3.22;1.85;;;6.10;99.90;;;;;;5002779;28;20037;-75
2022/09/21 03:08:15;;;;;;;2.10;1.75;;;6.10;99.90;;;;;;5030050;28;20033;-75
2022/09/21 03:10:41;;;;;;;2.70;2.00;;;6.10;99.90;;;;;;5024114;28;20124;-76
2022/09/21 03:13:08;;;;;;;4.90;1.80;;;6.10;99.90;;;;;;5030465;28;20127;-75
2022/09/21 03:15:37;;;;;;;2.35;1.88;;;6.10;99.90;;;;;;5026994;28;20504;-77
2022/09/21 03:18:04;;;;;;;3.85;1.70;;;6.10;99.90;;;;;;5034089;28;20044;-75
2022/09/21 03:20:34;;;;;;;3.13;1.77;;;6.10;99.90;;;;;;5025302;28;20049;-76
2022/09/21 03:23:00;;;;;;;2.20;1.60;;;6.10;99.90;;;;;;5045530;28;20134;-75
2022/09/21 03:25:27;;;;;;;1.50;1.40;;;6.10;99.90;;;;;;5030370;28;20481;-77
2022/09/21 03:27:54;;;;;;;2.83;1.70;;;6.10;99.90;;;;;;5025410;28;20045;-76
2022/09/21 03:30:21;;;;;;;1.80;1.70;;;6.00;99.90;;;;;;5025818;28;20041;-77
2022/09/21 03:32:54;;;;;;;2.25;1.65;;;6.10;99.90;;;;;;5028071;28;20036;-76
2022/09/21 03:35:21;;;;;;;2.53;1.65;;;6.00;99.90;;;;;;5026756;28;20112;-77
2022/09/21 03:37:48;;;;;;;3.83;1.40;;;6.00;99.90;;;;;;5009507;28;20037;-75
2022/09/21 03:40:15;;;;;;;3.53;1.70;;;6.00;99.90;;;;;;4999286;28;20057;-76
2022/09/21 03:42:41;;;;;;;1.65;1.42;;;5.90;99.90;;;;;;5031394;28;20128;-76
2022/09/21 03:45:09;;;;;;;2.13;1.75;;;5.90;99.90;;;;;;5032963;28;20064;-77
2022/09/21 03:47:35;;;;;;;1.73;1.60;;;5.90;99.90;;;;;;5016787;28;20135;-76
2022/09/21 03:50:00;;;;;;;2.38;1.73;;;5.90;99.90;;;;;;5031089;28;20044;-77
2022/09/21 03:52:26;;;;;;;2.97;1.80;;;5.90;99.90;;;;;;5030052;28;20094;-77
2022/09/21 03:54:52;;;;;;;2.10;1.63;;;5.90;99.90;;;;;;5024792;28;20479;-75
2022/09/21 03:57:17;;;;;;;1.60;1.50;;;5.80;99.90;;;;;;5026339;28;20036;-77
2022/09/21 03:59:43;;;;;;;2.72;1.60;;;5.80;99.90;;;;;;5032220;28;20096;-76
2022/09/21 04:02:08;;;;;;;1.75;1.60;;;5.80;99.90;;;;;;5025583;28;20055;-76
2022/09/21 04:04:34;;;;;;;2.25;1.88;;;5.80;99.90;;;;;;5026831;28;20052;-76
2022/09/21 04:07:00;;;;;;;3.08;1.60;;;5.90;99.90;;;;;;5046790;28;20124;-75
2022/09/21 04:09:25;;;;;;;2.75;1.65;;;5.80;99.90;;;;;;5047544;28;20051;-74
2022/09/21 04:11:52;;;;;;;2.90;1.80;;;5.80;99.90;;;;;;5045456;28;20025;-74
2022/09/21 04:14:18;;;;;;;1.95;1.58;;;5.80;99.90;;;;;;5046942;28;20059;-74
2022/09/21 04:16:44;;;;;;;2.30;1.92;;;5.70;99.90;;;;;;5013307;28;20093;-77
2022/09/21 04:19:10;;;;;;;3.72;2.25;;;5.80;99.90;;;;;;5010677;28;20105;-77
2022/09/21 04:21:36;;;;;;;3.97;2.00;;;5.80;99.90;;;;;;5030044;28;20070;-75
2022/09/21 04:24:03;;;;;;;3.95;2.25;;;5.70;99.90;;;;;;5027379;28;20066;-77
2022/09/21 04:26:31;;;;;;;4.55;2.00;;;5.70;99.90;;;;;;5027071;28;20083;-76
2022/09/21 04:28:58;;;;;;;5.05;1.70;;;5.70;99.90;;;;;;5010210;28;20037;-75
2022/09/21 04:31:24;;;;;;;2.95;1.83;;;5.70;99.90;;;;;;5023440;28;20069;-75
2022/09/21 04:33:51;;;;;;;2.88;1.92;;;5.60;99.90;;;;;;5027693;28;20040;-75
2022/09/21 04:36:17;;;;;;;3.08;1.83;;;5.70;99.90;;;;;;5026675;28;20388;-77
2022/09/21 04:38:43;;;;;;;4.15;1.98;;;5.60;99.90;;;;;;5018177;28;20155;-75
2022/09/21 04:41:10;;;;;;;5.57;1.90;;;5.70;99.90;;;;;;5010528;28;20102;-78
2022/09/21 04:43:35;;;;;;;2.90;2.15;;;5.60;99.90;;;;;;5025193;28;20040;-76
2022/09/21 04:46:09;;;;;;;4.45;1.95;;;5.60;99.90;;;;;;5021728;28;20392;-76
2022/09/21 04:48:35;;;;;;;2.65;1.83;;;5.60;99.90;;;;;;5029835;28;20064;-77
2022/09/21 04:51:02;;;;;;;4.93;2.28;;;5.60;99.90;;;;;;5027472;28;20060;-75
2022/09/21 04:53:28;;;;;;;5.70;2.50;;;5.60;99.90;;;;;;5026055;28;20052;-77
2022/09/21 04:55:54;;;;;;;3.60;2.20;;;5.60;99.90;;;;;;5009349;28;20036;-75
2022/09/21 04:58:23;;;;;;;3.58;2.25;;;5.60;99.90;;;;;;5011924;28;20377;-77
2022/09/21 05:00:54;;;;;;;3.85;2.25;;;5.70;99.90;;;;;;5026213;28;20455;-76
2022/09/21 05:03:20;;;;;;;4.20;2.38;;;5.60;99.90;;;;;;5010234;28;20076;-75
2022/09/21 05:05:50;;;;;;;4.20;2.10;;;5.60;99.90;;;;;;5026354;28;20090;-76
2022/09/21 05:08:16;;;;;;;6.40;2.10;;;5.60;99.90;;;;;;5023381;28;20044;-77
2022/09/21 05:10:43;;;;;;;6.65;2.40;;;5.60;99.90;;;;;;5026940;28;20044;-76
2022/09/21 05:13:09;;;;;;;7.38;2.20;;;5.60;99.90;;;;;;5028875;28;20028;-78
2022/09/21 05:15:37;;;;;;;3.15;2.00;;;5.50;99.90;;;;;;5005065;28;20119;-77
2022/09/21 05:18:03;;;;;;;3.70;2.28;;;5.60;99.90;;;;;;5023637;28;20102;-77
2022/09/21 05:20:28;;;;;;;4.50;2.25;;;5.50;99.90;;;;;;5026834;28;20048;-78
2022/09/21 05:22:54;;;;;;;5.07;2.70;;;5.50;99.90;;;;;;5026338;28;20161;-74
2022/09/21 05:25:20;;;;;;;5.38;2.60;;;5.50;99.90;;;;;;5025526;28;20171;-74
2022/09/21 05:27:45;;;;;;;4.10;2.17;;;5.60;99.90;;;;;;5009180;28;20090;-75
2022/09/21 05:30:12;;;;;;;5.18;2.17;;;5.90;99.90;;;;;;5011681;28;20033;-77
2022/09/21 05:32:46;;;;;;;4.55;2.38;;;5.50;99.90;;;;;;5028329;28;20119;-76
2022/09/21 05:35:29;;;;;;;4.57;2.30;;;5.60;99.90;;;;;;5022452;28;20049;-75
2022/09/21 05:38:02;;;;;;;8.02;2.30;;;5.50;99.90;;;;;;5026965;28;20126;-75
2022/09/21 05:40:27;;;;;;;10.38;2.42;;;5.60;99.90;;;;;;5040211;28;20041;-74
2022/09/21 05:42:55;;;;;;;4.57;2.28;;;5.60;99.90;;;;;;5028206;28;20052;-77
2022/09/21 05:45:21;;;;;;;7.38;2.40;;;5.60;99.90;;;;;;5005941;28;20465;-75
2022/09/21 05:48:02;;;;;;;3.63;2.20;;;5.60;99.90;;;;;;5008782;28;20033;-75
2022/09/21 05:50:30;;;;;;;4.63;2.35;;;5.60;99.90;;;;;;5026732;28;20049;-77
2022/09/21 05:53:24;;;;;;;10.02;2.50;;;5.70;99.90;;;;;;5008517;28;20037;-75
2022/09/21 05:55:55;;;;;;;8.35;2.45;;;5.80;99.90;;;;;;5023134;28;20052;-75
2022/09/21 05:58:55;;;;;;;3.53;2.20;;;6.00;99.90;;;;;;5024866;28;20064;-75
2022/09/21 06:01:40;;;;;;;4.85;2.40;;;6.00;99.90;;;;;;5020934;28;20444;-77
2022/09/21 06:04:11;;;;;;;3.92;2.20;;;6.00;99.90;;;;;;5024375;28;20472;-76
2022/09/21 06:06:37;;;;;;;9.82;2.30;;;6.00;99.90;;;;;;5025062;28;20381;-76
2022/09/21 06:09:03;;;;;;;6.22;2.10;;;6.10;99.90;;;;;;5027987;28;21694;-76
2022/09/21 06:11:29;;;;;;;5.40;2.03;;;6.10;99.90;;;;;;5009932;28;20041;-76
2022/09/21 06:13:55;;;;;;;5.63;2.10;;;6.20;99.90;;;;;;5025992;28;20033;-75
2022/09/21 06:16:21;;;;;;;7.35;2.20;;;6.20;99.90;;;;;;5003542;28;20085;-76
2022/09/21 06:18:47;;;;;;;5.35;1.95;;;6.20;99.90;;;;;;5030101;28;20072;-76
2022/09/21 06:21:12;;;;;;;3.83;1.80;;;6.30;99.90;;;;;;5010883;28;20130;-77
2022/09/21 06:23:38;;;;;;;3.83;1.90;;;6.40;99.90;;;;;;5004504;28;20530;-76
2022/09/21 06:26:04;;;;;;;5.13;1.83;;;6.40;99.90;;;;;;5011747;28;20049;-78
2022/09/21 06:28:29;;;;;;;5.68;2.17;;;6.40;99.90;;;;;;5010300;28;20040;-76
2022/09/21 06:30:56;;;;;;;6.30;2.40;;;6.50;99.90;;;;;;5030700;28;20052;-77
2022/09/21 06:33:22;;;;;;;7.10;2.22;;;6.60;99.90;;;;;;4997044;28;20040;-78
2022/09/21 06:35:56;;;;;;;9.05;2.40;;;6.70;99.90;;;;;;5012968;28;20098;-78
2022/09/21 06:38:23;;;;;;;9.45;2.70;;;6.80;99.90;;;;;;5009569;28;20040;-77
2022/09/21 06:40:50;;;;;;;8.32;3.00;;;6.90;99.90;;;;;;5027945;28;20043;-78
2022/09/21 06:43:16;;;;;;;4.45;2.67;;;6.90;99.90;;;;;;5010531;28;20128;-76
2022/09/21 06:45:41;;;;;;;11.48;3.45;;;6.90;99.90;;;;;;5024413;28;20458;-78
2022/09/21 06:48:07;;;;;;;7.63;3.20;;;7.00;99.90;;;;;;5020865;28;21184;-78
2022/09/21 06:50:33;;;;;;;10.07;4.40;;;7.10;99.90;;;;;;5005462;28;20084;-77
2022/09/21 06:52:59;;;;;;;13.95;5.05;;;7.20;99.90;;;;;;5007774;28;20064;-76
2022/09/21 06:55:25;;;;;;;14.23;5.13;;;7.30;99.90;;;;;;5022101;28;20361;-77
2022/09/21 06:57:51;;;;;;;10.00;5.03;;;7.60;99.90;;;;;;5021209;28;20061;-77
2022/09/21 07:00:16;;;;;;;15.45;5.93;;;7.70;99.90;;;;;;5019336;28;20155;-76
2022/09/21 07:02:44;;;;;;;20.42;5.63;;;7.80;99.90;;;;;;5003047;28;20045;-76
2022/09/21 07:05:10;;;;;;;17.88;5.95;;;8.00;99.90;;;;;;5023986;28;20049;-77
2022/09/21 07:07:36;;;;;;;16.00;6.07;;;8.00;99.90;;;;;;5008741;28;20150;-77
2022/09/21 07:10:03;;;;;;;16.85;5.55;;;8.10;99.90;;;;;;5022483;28;20526;-75
2022/09/21 07:12:33;;;;;;;14.07;5.03;;;8.30;99.90;;;;;;5026449;28;20033;-76
2022/09/21 07:15:00;;;;;;;10.52;5.15;;;8.40;99.90;;;;;;5014776;28;20337;-78
2022/09/21 07:17:39;;;;;;;10.27;5.10;;;8.40;99.90;;;;;;5005843;28;20352;-77
2022/09/21 07:20:05;;;;;;;15.85;4.82;;;8.50;99.90;;;;;;5012817;28;20084;-77
2022/09/21 07:22:31;;;;;;;14.73;5.20;;;8.50;99.90;;;;;;5016390;28;20516;-78
2022/09/21 07:24:57;;;;;;;14.60;5.07;;;8.60;99.90;;;;;;5017769;28;20086;-76
2022/09/21 07:27:24;;;;;;;13.18;5.45;;;8.70;99.90;;;;;;5035429;28;20037;-78
2022/09/21 07:29:50;;;;;;;14.38;5.10;;;8.80;99.90;;;;;;5032142;28;20152;-78
2022/09/21 07:32:16;;;;;;;13.18;4.40;;;8.80;99.90;;;;;;5023961;28;22277;-74
2022/09/21 07:34:42;;;;;;;16.30;4.68;;;9.00;99.90;;;;;;5000294;28;20060;-79
2022/09/21 07:37:08;;;;;;;16.02;4.43;;;9.00;99.90;;;;;;5044725;28;20045;-74
2022/09/21 07:39:34;;;;;;;9.68;4.68;;;9.10;99.90;;;;;;5046016;28;20080;-73
2022/09/21 07:42:00;;;;;;;12.02;4.63;;;9.20;99.90;;;;;;5027884;28;20055;-74
2022/09/21 07:44:26;;;;;;;12.13;4.50;;;9.30;99.90;;;;;;5011474;28;20065;-74
2022/09/21 07:46:52;;;;;;;9.77;4.15;;;9.50;99.90;;;;;;5040902;28;20079;-74
2022/09/21 07:49:17;;;;;;;13.60;4.45;;;9.50;99.90;;;;;;5037378;28;20129;-75
2022/09/21 07:51:43;;;;;;;9.65;5.15;;;9.60;99.90;;;;;;5015101;28;20107;-77
2022/09/21 07:54:09;;;;;;;9.82;4.43;;;9.70;99.90;;;;;;5019088;28;20091;-76
2022/09/21 07:56:38;;;;;;;13.00;4.53;;;9.80;99.90;;;;;;5024532;28;20056;-74
2022/09/21 07:59:04;;;;;;;12.80;3.75;;;10.00;99.90;;;;;;5016718;28;20057;-75
2022/09/21 08:01:35;;;;;;;11.50;4.25;;;10.20;99.90;;;;;;5022295;28;20535;-76
2022/09/21 08:04:01;;;;;;;14.07;5.00;;;10.20;99.90;;;;;;5003038;28;20053;-76
2022/09/21 08:06:29;;;;;;;15.10;4.55;;;10.30;99.90;;;;;;5019738;28;20089;-75
2022/09/21 08:08:55;;;;;;;12.63;3.85;;;10.40;99.90;;;;;;5014322;28;20052;-76
2022/09/21 08:11:21;;;;;;;9.93;2.60;;;10.50;99.90;;;;;;5011870;28;20106;-74
2022/09/21 08:13:48;;;;;;;17.17;2.60;;;10.70;99.90;;;;;;5017969;28;20080;-74
2022/09/21 08:16:14;;;;;;;12.50;3.05;;;10.80;99.90;;;;;;5016085;28;20124;-75
2022/09/21 08:18:40;;;;;;;10.77;2.85;;;10.90;99.90;;;;;;5014846;28;20055;-74
2022/09/21 08:21:09;;;;;;;16.33;2.92;;;10.90;99.90;;;;;;5020655;28;20049;-75
2022/09/21 08:23:39;;;;;;;9.00;2.13;;;11.10;99.90;;;;;;5017788;28;20757;-75
2022/09/21 08:26:06;;;;;;;14.07;2.15;;;11.10;99.90;;;;;;5003851;28;20057;-79
2022/09/21 08:28:33;;;;;;;16.38;3.45;;;11.40;99.90;;;;;;5004274;28;20152;-75
2022/09/21 08:31:09;;;;;;;12.43;2.05;;;11.70;99.90;;;;;;5023647;28;20041;-76
2022/09/21 08:33:35;;;;;;;18.73;2.50;;;11.90;99.90;;;;;;5007218;28;20171;-74
2022/09/21 08:36:01;;;;;;;13.27;1.90;;;12.00;99.90;;;;;;5017086;28;20127;-75
2022/09/21 08:38:32;;;;;;;11.50;2.13;;;12.10;99.90;;;;;;5017207;28;20056;-77
2022/09/21 08:41:00;;;;;;;10.75;1.90;;;12.30;99.90;;;;;;5001561;28;20515;-74
2022/09/21 08:43:32;;;;;;;12.57;1.98;;;12.30;99.90;;;;;;4996955;28;20179;-76
2022/09/21 08:45:59;;;;;;;9.48;2.10;;;12.50;99.90;;;;;;5016708;28;20388;-77
2022/09/21 08:48:31;;;;;;;5.25;1.70;;;12.70;99.90;;;;;;4998030;28;20048;-75
2022/09/21 08:51:01;;;;;;;10.60;1.73;;;12.60;99.90;;;;;;5016331;28;20056;-74
2022/09/21 08:53:49;;;;;;;16.88;2.40;;;12.60;99.90;;;;;;5020828;28;20067;-77
2022/09/21 08:56:15;;;;;;;10.30;1.38;;;12.60;99.90;;;;;;4999181;28;20191;-75
2022/09/21 08:58:42;;;;;;;8.50;1.80;;;12.80;99.90;;;;;;5005859;28;20129;-76
2022/09/21 09:01:47;;;;;;;14.32;2.03;;;12.80;99.90;;;;;;5017446;28;20140;-75
2022/09/21 09:04:25;;;;;;;11.55;1.15;;;12.90;99.90;;;;;;5031959;28;20106;-76
2022/09/21 09:07:17;;;;;;;10.77;1.38;;;12.90;99.90;;;;;;5022988;28;20048;-76
2022/09/21 09:09:53;;;;;;;9.00;1.30;;;12.90;99.90;;;;;;4986005;28;20202;-74
2022/09/21 09:12:35;;;;;;;6.53;1.40;;;13.00;99.90;;;;;;5005561;28;21881;-77
2022/09/21 09:15:11;;;;;;;11.45;1.10;;;13.10;99.90;;;;;;5022212;28;20048;-74
2022/09/21 09:18:01;;;;;;;9.85;1.70;;;13.10;99.90;;;;;;5018540;28;20053;-75
2022/09/21 09:20:41;;;;;;;5.63;1.00;;;13.10;99.90;;;;;;5020623;28;20112;-75
2022/09/21 09:23:23;;;;;;;6.75;1.40;;;13.20;99.90;;;;;;5017758;28;20046;-74
2022/09/21 09:25:52;;;;;;;6.25;1.20;;;13.40;99.90;;;;;;5015746;28;20132;-76
2022/09/21 09:28:21;;;;;;;6.15;1.20;;;13.50;99.90;;;;;;5016106;28;20642;-80
2022/09/21 09:30:56;;;;;;;11.77;1.25;;;13.50;99.90;;;;;;5012904;28;20045;-77
2022/09/21 09:33:30;;;;;;;9.75;1.40;;;13.60;99.90;;;;;;5031610;28;20094;-74
2022/09/21 09:36:03;;;;;;;10.90;1.63;;;13.70;99.90;;;;;;5003093;28;20037;-75
2022/09/21 09:38:51;;;;;;;6.00;1.00;;;13.70;99.90;;;;;;5003505;28;20111;-74
2022/09/21 09:41:38;;;;;;;6.03;1.30;;;13.90;99.90;;;;;;5004913;28;20048;-77
2022/09/21 09:44:26;;;;;;;11.48;1.80;;;13.90;99.90;;;;;;5029721;28;20491;-73
2022/09/21 09:47:26;;;;;;;6.88;1.40;;;13.90;99.90;;;;;;5023389;28;20064;-74
2022/09/21 09:50:01;;;;;;;9.35;1.20;;;14.10;99.90;;;;;;5022213;28;20098;-78
2022/09/21 09:52:27;;;;;;;8.45;1.15;;;14.20;99.90;;;;;;5002785;28;20048;-76
2022/09/21 09:54:53;;;;;;;9.82;1.10;;;14.30;99.90;;;;;;5012642;28;20513;-77
2022/09/21 09:57:32;;;;;;;11.23;1.30;;;14.50;99.90;;;;;;5002456;28;21004;-71
2022/09/21 10:00:11;;;;;;;9.43;1.20;;;14.50;99.90;;;;;;5013938;28;20113;-75
2022/09/21 10:02:48;;;;;;;7.40;1.27;;;14.60;99.90;;;;;;5004457;28;20060;-74
2022/09/21 10:05:21;;;;;;;4.70;0.85;;;14.50;99.90;;;;;;5044339;28;20053;-74
2022/09/21 10:07:46;;;;;;;10.77;1.08;;;14.50;99.90;;;;;;5025565;28;20053;-73
2022/09/21 10:10:22;;;;;;;10.75;1.30;;;14.70;99.90;;;;;;5039802;28;20139;-75
2022/09/21 10:59:37;;;;;;;4.40;1.10;;;16.40;99.90;;;;;;5068954;27;20175;-81
2022/09/21 11:02:28;;;;;;;7.15;1.17;;;16.50;99.90;;;;;;5059106;28;20095;-81
2022/09/21 11:04:59;;;;;;;6.72;1.40;;;16.50;99.90;;;;;;5072920;28;20415;-79
2022/09/21 11:07:34;;;;;;;5.75;1.25;;;16.40;99.90;;;;;;5039511;28;20053;-82
2022/09/21 11:12:01;;;;;;;5.57;1.30;;;16.20;99.90;;;;;;5081681;27;2300928;-81
2022/09/21 11:14:40;;;;;;;9.02;1.58;;;16.30;99.90;;;;;;5099935;27;20128;-80
2022/09/21 11:17:39;;;;;;;6.18;1.10;;;16.40;99.90;;;;;;5101269;27;20043;-81
2022/09/21 11:20:30;;;;;;;7.72;1.45;;;16.50;99.90;;;;;;5110273;27;20043;-81
2022/09/21 11:23:21;;;;;;;6.20;1.30;;;16.40;99.90;;;;;;5098310;28;20492;-80
2022/09/21 11:26:11;;;;;;;6.40;1.30;;;16.60;99.90;;;;;;5080156;28;20381;-80
2022/09/21 11:28:53;;;;;;;5.57;1.00;;;17.00;99.90;;;;;;5090698;28;20043;-79
2022/09/21 11:32:03;;;;;;;6.43;1.40;;;17.10;99.90;;;;;;5102654;28;20051;-81
2022/09/21 11:34:38;;;;;;;5.57;0.90;;;17.10;99.90;;;;;;5105948;28;20054;-80
2022/09/21 11:37:28;;;;;;;3.15;0.85;;;17.30;99.90;;;;;;5105521;28;20043;-81
2022/09/21 11:40:07;;;;;;;9.90;0.88;;;17.30;99.90;;;;;;5106140;28;20050;-81
2022/09/21 11:42:44;;;;;;;4.05;1.00;;;17.20;99.90;;;;;;5102969;28;20450;-80
2022/09/21 11:45:41;;;;;;;3.17;0.75;;;17.70;99.90;;;;;;5123030;28;20416;-81
2022/09/21 11:48:13;;;;;;;5.95;0.90;;;17.40;99.90;;;;;;5106617;28;20145;-80
2022/09/21 11:50:51;;;;;;;3.67;0.90;;;17.20;99.90;;;;;;5122159;28;20557;-79
2022/09/21 11:53:53;;;;;;;7.60;0.90;;;16.90;99.90;;;;;;5101235;28;21958;-80
2022/09/21 11:56:37;;;;;;;6.15;1.10;;;17.00;99.90;;;;;;5104648;28;20611;-80
2022/09/21 11:59:20;;;;;;;3.72;1.02;;;17.20;99.90;;;;;;5089360;28;20126;-81
2022/09/21 12:01:54;;;;;;;5.43;1.10;;;17.30;99.90;;;;;;5087145;28;20126;-80
2022/09/21 12:04:34;;;;;;;4.03;0.73;;;17.40;99.90;;;;;;5105908;28;20978;-80
2022/09/21 12:07:33;;;;;;;4.57;0.68;;;17.40;99.90;;;;;;5089148;28;20348;-80
2022/09/21 12:10:10;;;;;;;5.03;0.90;;;17.50;99.90;;;;;;5123493;28;20126;-80
2022/09/21 12:12:36;;;;;;;4.18;1.17;;;17.60;99.90;;;;;;5097137;28;20044;-81
2022/09/21 12:15:17;;;;;;;4.18;0.80;;;17.60;99.90;;;;;;5094274;28;20522;-82
2022/09/21 12:18:11;;;;;;;11.35;1.40;;;17.70;99.90;;;;;;5098109;28;20035;-79
2022/09/21 12:20:59;;;;;;;5.80;0.85;;;17.60;99.90;;;;;;5087175;28;20058;-79
2022/09/21 12:23:45;;;;;;;3.10;0.98;;;17.80;99.90;;;;;;5073560;28;20425;-81
2022/09/21 12:26:16;;;;;;;4.32;0.80;;;17.80;99.90;;;;;;5106324;28;20039;-79
2022/09/21 12:28:46;;;;;;;3.83;0.77;;;17.80;99.90;;;;;;5081294;28;20052;-81
2022/09/21 12:31:30;;;;;;;3.22;1.00;;;17.90;99.90;;;;;;5082916;28;20061;-80
2022/09/21 12:34:03;;;;;;;8.55;1.20;;;18.10;99.90;;;;;;5103091;28;20374;-81
2022/09/21 12:36:37;;;;;;;3.55;0.93;;;18.30;99.90;;;;;;5082047;28;20133;-77
2022/09/21 12:39:17;;;;;;;5.80;1.15;;;18.30;99.90;;;;;;5083685;28;20059;-80
2022/09/21 12:41:52;;;;;;;3.58;0.90;;;18.50;99.90;;;;;;5083563;28;20509;-79
2022/09/21 12:44:52;;;;;;;3.20;0.75;;;18.30;99.70;;;;;;5087850;28;20043;-80
2022/09/21 12:47:46;;;;;;;5.03;0.88;;;18.30;99.20;;;;;;5104062;28;20032;-80
2022/09/21 12:50:44;;;;;;;5.20;0.95;;;18.50;98.60;;;;;;5072372;28;20127;-79
2022/09/21 12:53:17;;;;;;;3.35;0.73;;;18.30;99.40;;;;;;5070807;28;20062;-80
2022/09/21 12:55:54;;;;;;;4.05;0.90;;;18.10;99.40;;;;;;5082861;28;20509;-80
2022/09/21 12:58:54;;;;;;;3.30;0.98;;;18.20;99.20;;;;;;5063635;28;20043;-79
2022/09/21 13:01:42;;;;;;;3.58;0.80;;;18.40;99.30;;;;;;5064294;28;20052;-79
2022/09/21 13:04:15;;;;;;;4.15;0.80;;;18.70;99.40;;;;;;5080086;28;20060;-79
2022/09/21 13:07:06;;;;;;;5.40;1.20;;;18.50;99.90;;;;;;5081214;28;20044;-79
2022/09/21 13:09:33;;;;;;;5.15;0.93;;;18.30;99.90;;;;;;5084665;28;20072;-78
2022/09/21 13:12:08;;;;;;;2.67;0.82;;;17.90;99.70;;;;;;5103147;28;20147;-79
2022/09/21 13:14:40;;;;;;;7.28;0.85;;;17.70;99.90;;;;;;5089046;28;20458;-79
2022/09/21 13:17:06;;;;;;;4.70;0.95;;;17.60;99.10;;;;;;5085931;28;20055;-81
2022/09/21 13:19:36;;;;;;;3.67;0.90;;;17.70;99.50;;;;;;5073616;28;20052;-80
2022/09/21 13:22:20;;;;;;;6.90;0.80;;;18.20;99.40;;;;;;5087685;28;20133;-79
2022/09/21 13:25:02;;;;;;;4.80;1.00;;;18.30;98.10;;;;;;5088018;28;20031;-78
2022/09/21 13:27:59;;;;;;;3.78;0.80;;;18.30;98.70;;;;;;5105399;28;20063;-81
2022/09/21 13:30:31;;;;;;;4.22;1.10;;;18.30;99.00;;;;;;5085951;28;20069;-80
2022/09/21 13:32:57;;;;;;;4.18;0.70;;;18.60;98.50;;;;;;5080791;28;20040;-80
2022/09/21 13:36:06;;;;;;;4.32;0.88;;;18.70;98.20;;;;;;5088634;28;20389;-81
2022/09/21 13:38:50;;;;;;;4.15;0.90;;;19.00;98.40;;;;;;5090808;28;20119;-81
2022/09/21 13:41:23;;;;;;;6.82;1.10;;;19.30;99.30;;;;;;5086879;28;20055;-81
2022/09/21 13:43:58;;;;;;;3.67;0.98;;;19.20;98.70;;;;;;5093870;28;20044;-82
2022/09/21 13:46:55;;;;;;;4.03;0.90;;;19.30;99.00;;;;;;5077884;28;20101;-81
2022/09/21 13:49:30;;;;;;;4.13;1.00;;;19.50;97.80;;;;;;5086025;28;20451;-83
2022/09/21 13:52:04;;;;;;;2.92;0.70;;;19.80;98.80;;;;;;5072625;28;20078;-84
2022/09/21 13:54:33;;;;;;;4.70;0.98;;;19.80;97.90;;;;;;5093449;28;20067;-83
2022/09/21 13:57:04;;;;;;;4.22;0.95;;;19.90;98.50;;;;;;5077846;28;20043;-83
2022/09/21 13:59:31;;;;;;;3.83;1.10;;;19.70;97.40;;;;;;5095874;28;20059;-82
2022/09/21 14:01:57;;;;;;;3.65;1.05;;;19.40;97.20;;;;;;5061723;28;20054;-81
2022/09/21 14:04:28;;;;;;;6.43;0.88;;;19.70;97.80;;;;;;5074654;28;20056;-81
2022/09/21 14:06:55;;;;;;;3.50;0.85;;;19.70;97.50;;;;;;5077388;28;20056;-84